createdAt,value
2022-12-03T00:00:16.835Z,31.15
2022-12-03T00:02:45.901Z,31.90
2022-12-03T00:05:13.668Z,32.97
2022-12-03T00:07:41.406Z,32.00
2022-12-03T00:10:10.126Z,31.42
2022-12-03T00:12:37.750Z,33.47
2022-12-03T00:15:07.039Z,33.10
2022-12-03T00:17:34.800Z,33.38
2022-12-03T00:20:05.030Z,33.05
2022-12-03T00:22:32.664Z,33.50
2022-12-03T00:25:00.338Z,33.17
2022-12-03T00:27:28.172Z,34.20
2022-12-03T00:29:55.879Z,31.23
2022-12-03T00:32:23.546Z,33.35
2022-12-03T00:34:51.355Z,33.10
2022-12-03T00:37:20.673Z,34.58
2022-12-03T00:39:48.336Z,34.40
2022-12-03T00:42:15.961Z,34.80
2022-12-03T00:44:43.648Z,34.55
2022-12-03T00:47:11.324Z,34.97
2022-12-03T00:49:39.052Z,36.72
2022-12-03T00:52:06.666Z,35.55
2022-12-03T00:54:35.676Z,35.65
2022-12-03T00:57:03.348Z,34.10
2022-12-03T00:59:31.015Z,35.40
2022-12-03T01:01:58.765Z,38.15
2022-12-03T01:04:26.518Z,33.88
2022-12-03T01:06:54.224Z,35.72
2022-12-03T01:09:21.899Z,35.80
2022-12-03T01:11:50.902Z,37.78
2022-12-03T01:14:20.382Z,40.00
2022-12-03T01:16:48.571Z,36.83
2022-12-03T01:19:17.531Z,40.90
2022-12-03T01:21:45.938Z,39.58
2022-12-03T01:24:13.934Z,37.90
2022-12-03T01:26:41.649Z,37.42
2022-12-03T01:29:10.748Z,36.22
2022-12-03T01:31:55.778Z,36.15
2022-12-03T01:34:23.473Z,34.65
2022-12-03T01:36:52.358Z,37.13
2022-12-03T01:39:20.460Z,34.45
2022-12-03T01:41:49.704Z,36.85
2022-12-03T01:44:22.465Z,36.03
2022-12-03T01:46:51.631Z,34.40
2022-12-03T01:49:23.154Z,35.05
2022-12-03T01:51:53.000Z,35.00
2022-12-03T01:54:23.702Z,36.00
2022-12-03T01:56:51.683Z,34.33
2022-12-03T01:59:23.993Z,36.20
2022-12-03T02:01:51.742Z,34.72
2022-12-03T02:04:23.514Z,34.20
2022-12-03T02:06:51.315Z,32.92
2022-12-03T02:09:18.957Z,34.13
2022-12-03T02:11:50.541Z,33.55
2022-12-03T02:14:22.970Z,33.38
2022-12-03T02:16:50.559Z,35.05
2022-12-03T02:19:24.954Z,33.38
2022-12-03T02:22:01.696Z,33.75
2022-12-03T02:24:36.448Z,32.95
2022-12-03T02:27:05.510Z,32.50
2022-12-03T02:29:33.288Z,33.25
2022-12-03T02:32:01.018Z,32.30
2022-12-03T02:34:36.666Z,33.17
2022-12-03T02:37:07.041Z,33.20
2022-12-03T02:42:23.885Z,32.78
2022-12-03T02:44:52.305Z,32.58
2022-12-03T02:47:22.243Z,34.47
2022-12-03T02:49:50.435Z,33.88
2022-12-03T02:52:18.190Z,31.20
2022-12-03T02:54:46.022Z,34.42
2022-12-03T02:57:15.684Z,32.58
2022-12-03T02:59:45.138Z,34.72
2022-12-03T03:02:13.591Z,34.80
2022-12-03T03:04:42.167Z,34.10
2022-12-03T03:07:10.513Z,35.05
2022-12-03T03:09:38.479Z,34.88
2022-12-03T03:12:06.767Z,33.47
2022-12-03T03:14:36.467Z,33.95
2022-12-03T03:17:05.120Z,34.38
2022-12-03T03:19:33.142Z,33.42
2022-12-03T03:22:01.100Z,32.33
2022-12-03T03:24:28.940Z,35.20
2022-12-03T03:26:56.701Z,34.90
2022-12-03T03:29:24.522Z,33.08
2022-12-03T03:31:53.832Z,34.03
2022-12-03T03:34:21.707Z,32.50
2022-12-03T03:36:49.363Z,32.75
2022-12-03T03:39:17.144Z,33.45
2022-12-03T03:41:47.004Z,32.88
2022-12-03T03:44:15.156Z,34.88
2022-12-03T03:46:43.747Z,32.95
2022-12-03T03:49:13.464Z,34.58
2022-12-03T03:51:41.359Z,35.17
2022-12-03T03:54:09.642Z,33.50
2022-12-03T03:56:37.945Z,35.55
2022-12-03T03:59:05.918Z,33.72
2022-12-03T04:01:34.112Z,34.42
2022-12-03T04:04:02.018Z,32.53
2022-12-03T04:06:31.031Z,31.73
2022-12-03T04:08:58.688Z,35.35
2022-12-03T04:11:43.626Z,34.03
2022-12-03T04:14:11.281Z,34.20
2022-12-03T04:16:38.965Z,33.13
2022-12-03T04:19:06.647Z,34.08
2022-12-03T04:21:53.215Z,33.83
2022-12-03T04:24:20.840Z,34.20
2022-12-03T04:27:06.130Z,34.20
2022-12-03T04:29:33.751Z,35.17
2022-12-03T04:32:19.164Z,33.40
2022-12-03T04:35:18.887Z,33.22
2022-12-03T04:37:47.932Z,32.22
2022-12-03T04:40:29.664Z,32.67
2022-12-03T04:42:57.294Z,34.83
2022-12-03T04:45:24.900Z,33.47
2022-12-03T04:47:52.517Z,33.38
2022-12-03T04:50:20.137Z,33.10
2022-12-03T04:52:49.119Z,34.20
2022-12-03T04:55:16.883Z,32.60
2022-12-03T04:57:44.502Z,34.45
2022-12-03T05:00:13.527Z,34.65
2022-12-03T05:02:41.250Z,33.65
2022-12-03T05:05:10.735Z,34.60
2022-12-03T05:07:38.597Z,34.15
2022-12-03T05:10:09.009Z,35.85
2022-12-03T05:15:05.361Z,35.13
2022-12-03T05:17:33.112Z,34.88
2022-12-03T05:20:18.528Z,33.72
2022-12-03T05:22:46.143Z,34.72
2022-12-03T05:25:15.184Z,34.33
2022-12-03T05:27:42.814Z,34.22
2022-12-03T05:30:11.365Z,34.60
2022-12-03T05:32:38.973Z,34.97
2022-12-03T05:35:07.350Z,35.22
2022-12-03T05:37:34.991Z,35.55
2022-12-03T05:40:02.827Z,35.53
2022-12-03T05:42:49.371Z,34.70
2022-12-03T05:45:17.148Z,34.67
2022-12-03T05:47:44.860Z,34.42
2022-12-03T05:50:13.128Z,34.10
2022-12-03T05:52:40.762Z,34.78
2022-12-03T05:55:09.715Z,31.83
2022-12-03T05:57:38.753Z,34.88
2022-12-03T06:00:08.959Z,34.55
2022-12-03T06:02:36.753Z,35.80
2022-12-03T06:05:05.000Z,34.90
2022-12-03T06:07:32.716Z,36.92
2022-12-03T06:10:00.407Z,36.35
2022-12-03T06:12:28.083Z,37.38
2022-12-03T06:14:57.116Z,37.78
2022-12-03T06:17:24.777Z,36.15
2022-12-03T06:19:52.389Z,35.38
2022-12-03T06:22:20.351Z,35.22
2022-12-03T06:24:48.031Z,34.47
2022-12-03T06:27:15.713Z,35.75
2022-12-03T06:29:43.425Z,39.45
2022-12-03T06:32:12.566Z,34.97
2022-12-03T06:34:40.424Z,37.90
2022-12-03T06:37:08.315Z,35.95
2022-12-03T06:39:35.983Z,37.05
2022-12-03T06:42:03.593Z,36.85
2022-12-03T06:44:31.232Z,37.55
2022-12-03T06:46:59.032Z,37.28
2022-12-03T06:49:28.177Z,37.08
2022-12-03T06:51:55.874Z,36.47
2022-12-03T06:54:23.486Z,38.15
2022-12-03T06:56:51.109Z,36.72
2022-12-03T06:59:18.719Z,36.38
2022-12-03T07:01:46.470Z,37.13
2022-12-03T07:04:14.275Z,37.08
2022-12-03T07:06:43.697Z,37.95
2022-12-03T07:09:11.498Z,38.22
2022-12-03T07:11:41.846Z,35.55
2022-12-03T07:16:39.756Z,37.17
2022-12-03T07:19:07.992Z,38.08
2022-12-03T07:21:35.807Z,38.03
2022-12-03T07:24:05.532Z,37.35
2022-12-03T07:26:33.509Z,37.50
2022-12-03T07:29:01.156Z,38.22
2022-12-03T07:31:28.822Z,36.33
2022-12-03T07:33:56.511Z,38.28
2022-12-03T07:36:24.248Z,37.63
2022-12-03T07:38:52.016Z,37.35
2022-12-03T07:41:21.078Z,38.95
2022-12-03T07:43:48.734Z,39.17
2022-12-03T07:46:16.395Z,37.75
2022-12-03T07:48:44.175Z,38.72
2022-12-03T07:51:15.265Z,37.70
2022-12-03T07:53:43.368Z,37.28
2022-12-03T07:56:11.123Z,37.95
2022-12-03T07:58:40.114Z,39.45
2022-12-03T08:01:07.877Z,36.92
2022-12-03T08:03:35.532Z,38.55
2022-12-03T08:06:03.220Z,38.10
2022-12-03T08:08:30.876Z,36.33
2022-12-03T08:10:58.521Z,39.75
2022-12-03T08:13:26.159Z,43.58
2022-12-03T08:15:57.273Z,38.55
2022-12-03T08:18:24.969Z,37.28
2022-12-03T08:20:53.550Z,38.15
2022-12-03T08:23:22.685Z,39.00
2022-12-03T08:25:51.842Z,37.35
2022-12-03T08:28:21.605Z,39.03
2022-12-03T08:31:01.780Z,38.22
2022-12-03T08:33:33.520Z,38.00
2022-12-03T08:36:03.039Z,36.53
2022-12-03T08:38:30.782Z,37.70
2022-12-03T08:40:59.092Z,37.05
2022-12-03T08:43:28.055Z,37.17
2022-12-03T08:45:57.465Z,37.75
2022-12-03T08:48:36.751Z,37.43
2022-12-03T08:51:20.034Z,38.00
2022-12-03T08:53:49.276Z,37.90
2022-12-03T08:56:25.483Z,36.95
2022-12-03T08:58:56.194Z,35.63
2022-12-03T09:01:35.929Z,37.63
2022-12-03T09:04:20.955Z,38.90
2022-12-03T09:06:48.623Z,36.80
2022-12-03T09:09:16.566Z,37.08
2022-12-03T09:11:44.247Z,37.80
2022-12-03T09:14:18.150Z,39.22
2022-12-03T09:16:46.379Z,37.90
2022-12-03T09:19:15.434Z,37.00
2022-12-03T09:21:43.072Z,35.35
2022-12-03T09:24:10.732Z,35.75
2022-12-03T09:26:38.379Z,36.80
2022-12-03T09:29:11.678Z,36.97
2022-12-03T09:31:40.084Z,36.78
2022-12-03T09:34:07.952Z,38.17
2022-12-03T09:36:36.923Z,36.58
2022-12-03T09:39:04.710Z,38.88
2022-12-03T09:41:32.402Z,37.30
2022-12-03T09:44:04.683Z,37.53
2022-12-03T09:46:33.668Z,38.45
2022-12-03T09:49:01.830Z,36.60
2022-12-03T09:51:37.576Z,36.65
2022-12-03T09:54:08.159Z,39.00
2022-12-03T09:56:38.316Z,36.97
2022-12-03T09:59:07.828Z,38.97
2022-12-03T10:01:36.019Z,35.90
2022-12-03T10:04:03.853Z,37.42
2022-12-03T10:06:31.822Z,37.38
2022-12-03T10:09:00.982Z,38.38
2022-12-03T10:11:31.338Z,37.42
2022-12-03T10:16:29.604Z,35.50
2022-12-03T10:19:00.461Z,36.72
2022-12-03T10:21:32.056Z,36.58
2022-12-03T10:24:20.910Z,36.60
2022-12-03T10:26:50.334Z,46.25
2022-12-03T10:29:20.174Z,34.63
2022-12-03T10:31:55.835Z,36.08
2022-12-03T10:34:30.448Z,35.03
2022-12-03T10:37:14.804Z,35.28
2022-12-03T10:40:01.251Z,36.97
2022-12-03T10:42:30.462Z,36.10
2022-12-03T10:45:19.048Z,35.13
2022-12-03T10:48:06.073Z,34.75
2022-12-03T10:50:35.295Z,42.20
2022-12-03T10:53:03.136Z,47.55
2022-12-03T10:55:38.692Z,35.70
2022-12-03T10:58:06.529Z,34.58
2022-12-03T11:00:34.215Z,35.92
2022-12-03T11:03:02.551Z,37.08
2022-12-03T11:05:30.298Z,34.15
2022-12-03T11:07:58.130Z,32.90
2022-12-03T11:10:26.314Z,35.80
2022-12-03T11:13:30.044Z,35.15
2022-12-03T11:15:58.110Z,35.13
2022-12-03T11:18:58.918Z,34.65
2022-12-03T11:21:26.585Z,36.75
2022-12-03T11:24:05.119Z,33.25
2022-12-03T11:27:08.706Z,34.25
2022-12-03T11:30:01.460Z,34.70
2022-12-03T11:33:08.603Z,36.30
2022-12-03T11:35:59.046Z,32.90
2022-12-03T11:41:25.736Z,32.88
2022-12-03T11:44:27.485Z,34.55
2022-12-03T11:46:56.430Z,32.92
2022-12-03T11:49:29.636Z,35.35
2022-12-03T11:51:58.240Z,34.20
2022-12-03T11:54:25.914Z,35.38
2022-12-03T11:56:56.037Z,35.70
2022-12-03T11:59:23.710Z,34.13
2022-12-03T12:01:51.377Z,34.30
2022-12-03T12:04:32.005Z,37.92
2022-12-03T12:07:00.085Z,48.53
2022-12-03T12:09:50.283Z,37.53
2022-12-03T12:12:30.591Z,34.70
2022-12-03T12:14:58.838Z,34.15
2022-12-03T12:17:33.779Z,34.20
2022-12-03T12:20:24.535Z,33.53
2022-12-03T12:22:52.555Z,34.17
2022-12-03T12:25:43.609Z,33.17
2022-12-03T12:28:12.696Z,35.15
2022-12-03T12:30:40.378Z,35.25
2022-12-03T12:33:22.915Z,34.10
2022-12-03T12:35:50.763Z,33.72
2022-12-03T12:38:19.828Z,38.88
2022-12-03T12:40:50.125Z,35.70
2022-12-03T12:43:25.849Z,33.45
2022-12-03T12:45:55.443Z,34.70
2022-12-03T12:48:25.973Z,34.63
2022-12-03T12:50:59.555Z,34.25
2022-12-03T12:53:28.698Z,36.28
2022-12-03T12:55:58.731Z,36.47
2022-12-03T12:58:31.249Z,36.97
2022-12-03T13:01:01.616Z,34.05
2022-12-03T13:05:58.429Z,35.97
2022-12-03T13:08:29.070Z,35.45
2022-12-03T13:10:57.789Z,33.03
2022-12-03T13:13:40.138Z,33.65
2022-12-03T13:16:13.296Z,36.08
2022-12-03T13:18:44.813Z,34.88
2022-12-03T13:21:26.382Z,33.65
2022-12-03T13:23:56.198Z,32.58
2022-12-03T13:26:36.415Z,32.55
2022-12-03T13:29:14.673Z,35.28
2022-12-03T13:31:47.946Z,33.58
2022-12-03T13:34:20.840Z,33.05
2022-12-03T13:36:55.409Z,33.67
2022-12-03T13:39:29.887Z,35.13
2022-12-03T13:42:16.396Z,32.67
2022-12-03T13:44:50.198Z,35.45
2022-12-03T13:47:21.845Z,33.60
2022-12-03T13:49:53.620Z,34.42
2022-12-03T13:52:25.262Z,34.70
2022-12-03T13:54:55.285Z,33.25
2022-12-03T13:57:23.749Z,33.95
2022-12-03T13:59:53.320Z,33.33
2022-12-03T14:02:21.713Z,35.75
2022-12-03T14:04:49.702Z,35.70
2022-12-03T14:07:18.184Z,32.78
2022-12-03T14:09:46.149Z,33.50
2022-12-03T14:12:33.768Z,32.60
2022-12-03T14:15:04.921Z,34.58
2022-12-03T14:17:33.000Z,33.17
2022-12-03T14:20:01.914Z,31.67
2022-12-03T14:22:30.566Z,31.77
2022-12-03T14:24:58.857Z,32.58
2022-12-03T14:27:27.639Z,32.25
2022-12-03T14:29:55.898Z,30.58
2022-12-03T14:32:26.078Z,31.15
2022-12-03T14:34:54.651Z,31.67
2022-12-03T14:37:22.985Z,29.67
2022-12-03T14:39:51.090Z,31.65
2022-12-03T14:42:19.218Z,29.17
2022-12-03T14:44:49.071Z,29.27
2022-12-03T14:47:18.927Z,29.13
2022-12-03T14:49:48.293Z,29.33
2022-12-03T14:52:16.953Z,29.55
2022-12-03T14:54:46.199Z,31.42
2022-12-03T14:57:16.094Z,30.30
2022-12-03T14:59:45.927Z,30.33
2022-12-03T15:02:14.473Z,29.48
2022-12-03T15:04:42.963Z,28.70
2022-12-03T15:07:12.462Z,30.08
2022-12-03T15:09:40.430Z,28.37
2022-12-03T15:12:09.118Z,28.23
2022-12-03T15:14:37.190Z,30.00
2022-12-03T15:17:05.403Z,30.75
2022-12-03T15:19:33.741Z,30.10
2022-12-03T15:22:01.886Z,31.42
2022-12-03T15:24:31.611Z,31.13
2022-12-03T15:27:00.000Z,29.52
2022-12-03T15:29:28.163Z,34.33
2022-12-03T15:31:56.599Z,33.22
2022-12-03T15:34:25.029Z,30.48
2022-12-03T15:36:53.502Z,28.67
2022-12-03T15:39:21.642Z,29.85
2022-12-03T15:41:50.967Z,31.25
2022-12-03T15:44:19.140Z,30.38
2022-12-03T15:46:47.691Z,29.70
2022-12-03T15:49:15.972Z,30.98
2022-12-03T15:51:44.064Z,31.33
2022-12-03T15:54:12.627Z,30.83
2022-12-03T15:56:40.694Z,29.65
2022-12-03T15:59:10.342Z,30.50
2022-12-03T16:01:38.403Z,32.03
2022-12-03T16:04:06.644Z,31.92
2022-12-03T16:06:34.701Z,31.15
2022-12-03T16:09:02.807Z,31.60
2022-12-03T16:11:30.928Z,32.20
2022-12-03T16:13:59.517Z,31.38
2022-12-03T16:16:29.136Z,30.25
2022-12-03T16:18:57.214Z,34.03
2022-12-03T16:21:27.241Z,29.60
2022-12-03T16:23:55.935Z,31.05
2022-12-03T16:26:24.240Z,30.35
2022-12-03T16:28:52.055Z,30.42
2022-12-03T16:31:20.239Z,31.50
2022-12-03T16:33:49.897Z,32.63
2022-12-03T16:36:18.114Z,33.45
2022-12-03T16:38:45.992Z,30.63
2022-12-03T16:41:14.353Z,32.03
2022-12-03T16:43:45.591Z,30.88
2022-12-03T16:46:26.286Z,33.00
2022-12-03T16:48:57.912Z,30.48
2022-12-03T16:51:26.535Z,31.15
2022-12-03T16:53:55.156Z,31.65
2022-12-03T16:56:23.486Z,31.08
2022-12-03T16:58:51.709Z,30.23
2022-12-03T17:01:19.827Z,33.35
2022-12-03T17:03:47.880Z,31.00
2022-12-03T17:06:17.360Z,29.48
2022-12-03T17:08:49.359Z,31.98
2022-12-03T17:11:18.537Z,31.42
2022-12-03T17:13:46.818Z,32.85
2022-12-03T17:16:15.284Z,32.15
2022-12-03T17:18:43.647Z,34.42
2022-12-03T17:21:11.683Z,32.78
2022-12-03T17:23:40.910Z,32.35
2022-12-03T17:26:08.927Z,32.25
2022-12-03T17:28:36.790Z,31.30
2022-12-03T17:31:05.155Z,32.92
2022-12-03T17:33:33.146Z,33.40
2022-12-03T17:36:01.479Z,32.90
2022-12-03T17:38:34.003Z,32.90
2022-12-03T17:41:07.480Z,32.55
2022-12-03T17:43:35.369Z,31.63
2022-12-03T17:46:05.115Z,31.85
2022-12-03T17:48:33.105Z,32.92
2022-12-03T17:51:01.575Z,33.95
2022-12-03T17:53:29.588Z,30.75
2022-12-03T17:55:57.502Z,34.08
2022-12-03T17:58:27.651Z,34.85
2022-12-03T18:01:01.780Z,35.40
2022-12-03T18:03:30.392Z,34.75
2022-12-03T18:05:58.459Z,33.63
2022-12-03T18:08:26.360Z,34.22
2022-12-03T18:10:54.252Z,33.90
2022-12-03T18:13:22.351Z,35.33
2022-12-03T18:15:51.834Z,35.20
2022-12-03T18:18:20.261Z,33.53
2022-12-03T18:20:48.309Z,34.67
2022-12-03T18:23:16.485Z,34.45
2022-12-03T18:25:44.651Z,34.20
2022-12-03T18:28:12.272Z,33.90
2022-12-03T18:30:39.915Z,34.13
2022-12-03T18:33:08.983Z,36.15
2022-12-03T18:35:36.698Z,34.88
2022-12-03T18:38:04.424Z,35.88
2022-12-03T18:40:32.103Z,33.53
2022-12-03T18:42:59.895Z,36.78
2022-12-03T18:45:27.533Z,37.17
2022-12-03T18:47:55.701Z,36.25
2022-12-03T18:50:24.662Z,35.15
2022-12-03T18:52:52.413Z,36.03
2022-12-03T18:55:20.593Z,37.22
2022-12-03T18:57:48.234Z,36.72
2022-12-03T19:00:17.070Z,35.92
2022-12-03T19:05:35.880Z,37.17
2022-12-03T19:08:04.127Z,37.85
2022-12-03T19:10:31.865Z,37.72
2022-12-03T19:12:59.574Z,36.25
2022-12-03T19:15:27.234Z,35.92
2022-12-03T19:17:54.847Z,36.70
2022-12-03T19:20:22.798Z,37.33
2022-12-03T19:22:52.144Z,36.13
2022-12-03T19:25:22.372Z,38.50
2022-12-03T19:27:50.819Z,38.28
2022-12-03T19:30:19.192Z,38.08
2022-12-03T19:32:48.605Z,39.42
2022-12-03T19:35:19.523Z,36.70
2022-12-03T19:37:48.347Z,36.15
2022-12-03T19:40:18.640Z,38.38
2022-12-03T19:42:49.821Z,38.30
2022-12-03T19:45:17.976Z,39.80
2022-12-03T19:47:47.383Z,41.47
2022-12-03T19:50:22.503Z,43.00
2022-12-03T19:52:54.177Z,39.75
2022-12-03T19:55:25.963Z,40.58
2022-12-03T19:57:54.043Z,38.92
2022-12-03T20:00:22.224Z,35.67
2022-12-03T20:02:54.726Z,38.83
2022-12-03T20:05:22.497Z,37.80
2022-12-03T20:07:50.333Z,38.55
2022-12-03T20:10:18.166Z,38.63
2022-12-03T20:12:47.726Z,39.47
2022-12-03T20:15:15.510Z,38.50
2022-12-03T20:17:43.417Z,39.88
2022-12-03T20:20:15.034Z,38.88
2022-12-03T20:22:42.872Z,37.40
2022-12-03T20:25:11.669Z,40.30
2022-12-03T20:27:39.718Z,37.75
2022-12-03T20:30:12.803Z,36.78
2022-12-03T20:32:45.330Z,39.90
2022-12-03T20:35:21.476Z,40.17
2022-12-03T20:37:49.317Z,39.47
2022-12-03T20:40:17.303Z,37.47
2022-12-03T20:42:51.639Z,40.88
2022-12-03T20:45:20.650Z,41.33
2022-12-03T20:47:51.113Z,39.00
2022-12-03T20:53:09.376Z,39.25
2022-12-03T20:55:34.975Z,40.22
2022-12-03T20:58:02.910Z,40.65
2022-12-03T21:00:32.609Z,40.97
2022-12-03T21:03:00.523Z,40.03
2022-12-03T21:05:28.536Z,40.25
2022-12-03T21:07:56.342Z,41.25
2022-12-03T21:10:44.982Z,40.25
2022-12-03T21:13:14.524Z,38.78
2022-12-03T21:15:44.124Z,39.43
2022-12-03T21:18:14.351Z,40.83
2022-12-03T21:20:42.854Z,43.65
2022-12-03T21:23:13.826Z,44.03
2022-12-03T21:25:41.987Z,43.75
2022-12-03T21:28:10.975Z,41.50
2022-12-03T21:30:40.522Z,39.75
2022-12-03T21:33:10.095Z,42.50
2022-12-03T21:35:38.761Z,40.53
2022-12-03T21:38:10.897Z,42.90
2022-12-03T21:40:38.754Z,43.85
2022-12-03T21:43:06.653Z,42.75
2022-12-03T21:45:37.311Z,41.65
2022-12-03T21:48:05.545Z,42.25
2022-12-03T21:50:37.099Z,42.25
2022-12-03T21:53:05.288Z,42.78
2022-12-03T21:55:33.249Z,44.13
2022-12-03T21:58:01.277Z,44.38
2022-12-03T22:00:29.050Z,42.17
2022-12-03T22:02:56.980Z,44.60
2022-12-03T22:05:24.888Z,43.28
2022-12-03T22:07:54.210Z,43.42
2022-12-03T22:10:22.084Z,41.72
2022-12-03T22:12:49.798Z,42.28
2022-12-03T22:15:19.423Z,43.15
2022-12-03T22:17:47.597Z,42.15
2022-12-03T22:20:16.004Z,42.08
2022-12-03T22:22:43.806Z,43.15
2022-12-03T22:25:13.064Z,43.22
2022-12-03T22:27:40.877Z,42.83
2022-12-03T22:30:10.042Z,43.40
2022-12-03T22:32:38.054Z,42.25
2022-12-03T22:35:06.676Z,42.03
2022-12-03T22:37:34.348Z,42.08
2022-12-03T22:40:02.300Z,41.55
2022-12-03T22:42:31.525Z,44.85
2022-12-03T22:44:59.301Z,42.38
2022-12-03T22:47:27.102Z,42.55
2022-12-03T22:49:55.193Z,45.90
2022-12-03T22:52:23.464Z,45.03
2022-12-03T22:54:51.232Z,42.03
2022-12-03T22:57:19.233Z,44.05
2022-12-03T22:59:48.460Z,43.10
2022-12-03T23:02:19.270Z,44.10
2022-12-03T23:04:47.175Z,44.83
2022-12-03T23:07:15.060Z,46.65
2022-12-03T23:09:42.819Z,47.15
2022-12-03T23:12:10.588Z,44.20
2022-12-03T23:14:38.490Z,42.70
2022-12-03T23:17:07.562Z,44.67
2022-12-03T23:19:35.595Z,43.45
2022-12-03T23:22:03.506Z,43.90
2022-12-03T23:24:33.392Z,43.40
2022-12-03T23:27:01.129Z,43.50
2022-12-03T23:29:28.919Z,44.97
2022-12-03T23:31:58.216Z,44.55
2022-12-03T23:34:27.554Z,43.67
2022-12-03T23:36:55.402Z,44.90
2022-12-03T23:39:23.317Z,44.20
2022-12-03T23:41:55.570Z,44.30
2022-12-03T23:44:23.950Z,44.35
2022-12-03T23:46:51.840Z,47.28
2022-12-03T23:49:19.653Z,47.30
2022-12-03T23:51:48.990Z,45.17
2022-12-03T23:54:16.766Z,45.65
2022-12-03T23:56:44.630Z,44.30
2022-12-03T23:59:12.491Z,43.65
